createdAt,value
2017-11-09T00:03:22.037Z,95736.53
2017-11-09T00:09:59.455Z,95740.41
2017-11-09T00:12:28.348Z,95741.33
2017-11-09T00:14:55.944Z,95728.94
2017-11-09T00:17:24.548Z,95746.19
2017-11-09T00:19:52.912Z,95736.56
2017-11-09T00:22:21.287Z,95738.66
2017-11-09T00:24:49.060Z,95734.88
2017-11-09T00:27:16.784Z,95733.04
2017-11-09T00:29:46.480Z,95739.80
2017-11-09T00:32:28.533Z,95736.26
2017-11-09T00:35:03.405Z,95742.72
2017-11-09T00:58:36.529Z,95734.92
2017-11-09T01:01:04.211Z,95731.91
2017-11-09T01:03:35.998Z,95726.50
2017-11-09T01:06:05.196Z,95724.75
2017-11-09T01:22:21.821Z,95729.39
2017-11-09T01:24:49.433Z,95736.42
2017-11-09T01:27:17.027Z,95723.71
2017-11-09T01:29:45.336Z,95730.03
2017-11-09T01:32:13.421Z,95733.11
2017-11-09T01:34:41.010Z,95730.86
2017-11-09T01:37:08.740Z,95726.97
2017-11-09T01:39:36.453Z,95730.31
2017-11-09T01:42:04.110Z,95731.42
2017-11-09T01:44:33.614Z,95732.13
2017-11-09T01:47:01.358Z,95725.46
2017-11-09T01:49:30.334Z,95714.78
2017-11-09T01:51:57.903Z,95731.63
2017-11-09T01:54:25.559Z,95751.89
2017-11-09T01:57:01.238Z,95756.78
2017-11-09T01:59:40.054Z,95756.23
2017-11-09T02:02:07.656Z,95752.73
2017-11-09T02:04:35.355Z,95758.84
2017-11-09T02:07:02.951Z,95756.78
2017-11-09T02:09:30.581Z,95761.45
2017-11-09T02:11:58.214Z,95753.35
2017-11-09T02:14:25.819Z,95759.03
2017-11-09T02:16:53.447Z,95757.20
2017-11-09T02:19:21.021Z,95763.65
2017-11-09T02:21:48.844Z,95758.56
2017-11-09T02:24:16.621Z,95764.89
2017-11-09T02:26:44.286Z,95762.00
2017-11-09T02:29:11.980Z,95754.61
2017-11-09T02:31:39.689Z,95762.31
2017-11-09T02:34:11.957Z,95759.04
2017-11-09T02:36:39.759Z,95765.50
2017-11-09T02:39:08.361Z,95763.47
2017-11-09T02:41:35.946Z,95756.84
2017-11-09T02:44:03.692Z,95759.51
2017-11-09T02:46:31.474Z,95758.86
2017-11-09T02:49:02.150Z,95759.48
2017-11-09T03:13:02.855Z,95773.04
2017-11-09T03:15:30.514Z,95778.80
2017-11-09T03:17:58.085Z,95773.28
2017-11-09T03:20:25.786Z,95783.25
2017-11-09T03:22:53.454Z,95769.93
2017-11-09T03:25:21.082Z,95773.20
2017-11-09T03:27:48.779Z,95775.90
2017-11-09T03:30:21.326Z,95785.86
2017-11-09T03:32:48.993Z,95784.69
2017-11-09T03:42:36.802Z,95778.01
2017-11-09T03:45:04.495Z,95775.97
2017-11-09T03:47:41.179Z,95785.45
2017-11-09T03:50:08.748Z,95786.89
2017-11-09T03:52:37.260Z,95788.49
2017-11-09T03:55:04.969Z,95794.37
2017-11-09T03:57:35.183Z,95786.58
2017-11-09T04:00:04.491Z,95794.20
2017-11-09T04:02:32.179Z,95797.25
2017-11-09T04:04:59.944Z,95801.31
2017-11-09T04:07:27.565Z,95798.52
2017-11-09T04:09:55.193Z,95805.44
2017-11-09T04:12:22.839Z,95795.67
2017-11-09T04:14:50.501Z,95797.22
2017-11-09T04:17:18.786Z,95808.37
2017-11-09T04:19:46.449Z,95806.59
2017-11-09T04:22:14.479Z,95800.45
2017-11-09T04:24:42.031Z,95808.56
2017-11-09T04:27:09.608Z,95804.51
2017-11-09T04:29:37.333Z,95798.04
2017-11-09T04:32:32.059Z,95811.26
2017-11-09T04:34:59.731Z,95809.08
2017-11-09T04:37:27.421Z,95808.00
2017-11-09T04:40:11.097Z,95811.74
2017-11-09T04:43:01.728Z,95809.59
2017-11-09T04:45:29.447Z,95809.37
2017-11-09T05:02:32.342Z,95825.12
2017-11-09T05:05:21.139Z,95830.32
2017-11-09T05:07:48.930Z,95828.84
2017-11-09T05:13:44.651Z,95834.95
2017-11-09T05:16:24.424Z,95833.80
2017-11-09T05:19:02.533Z,95835.03
2017-11-09T05:21:30.042Z,95836.30
2017-11-09T05:24:01.510Z,95843.03
2017-11-09T05:26:29.091Z,95838.80
2017-11-09T05:28:56.623Z,95841.53
2017-11-09T05:31:24.204Z,95837.52
2017-11-09T05:33:51.751Z,95842.44
2017-11-09T05:36:19.335Z,95841.77
2017-11-09T05:38:46.902Z,95844.40
2017-11-09T05:41:15.256Z,95849.97
2017-11-09T05:43:42.988Z,95848.32
2017-11-09T05:46:10.579Z,95852.70
2017-11-09T05:48:38.380Z,95853.02
2017-11-09T05:51:05.996Z,95853.50
2017-11-09T05:53:33.557Z,95861.95
2017-11-09T05:56:01.103Z,95868.31
2017-11-09T05:58:28.651Z,95864.20
2017-11-09T06:00:56.291Z,95865.09
2017-11-09T06:03:24.169Z,95878.72
2017-11-09T06:05:51.978Z,95878.25
2017-11-09T06:08:19.663Z,95877.45
2017-11-09T06:10:47.198Z,95885.94
2017-11-09T06:13:14.755Z,95887.59
2017-11-09T06:15:42.495Z,95891.47
2017-11-09T06:18:10.079Z,95896.50
2017-11-09T06:20:37.656Z,95892.32
2017-11-09T06:23:05.291Z,95898.25
2017-11-09T06:25:32.832Z,95893.41
2017-11-09T06:28:00.451Z,95891.64
2017-11-09T06:30:28.109Z,95885.42
2017-11-09T06:32:55.731Z,95890.00
2017-11-09T06:35:23.274Z,95895.27
2017-11-09T06:37:50.841Z,95901.34
2017-11-09T06:40:18.358Z,95893.58
2017-11-09T06:42:45.995Z,95901.27
2017-11-09T06:45:13.642Z,95906.09
2017-11-09T06:47:41.383Z,95900.52
2017-11-09T06:50:08.903Z,95912.14
2017-11-09T06:52:36.467Z,95912.70
2017-11-09T06:55:04.043Z,95911.62
2017-11-09T06:57:31.566Z,95910.70
2017-11-09T06:59:59.125Z,95918.44
2017-11-09T07:02:26.741Z,95922.63
2017-11-09T07:04:54.291Z,95922.94
2017-11-09T07:07:21.817Z,95926.43
2017-11-09T07:09:49.447Z,95923.40
2017-11-09T07:12:17.018Z,95924.20
2017-11-09T07:14:44.560Z,95925.34
2017-11-09T07:17:12.141Z,95916.45
2017-11-09T07:19:40.819Z,95920.17
2017-11-09T07:22:08.395Z,95919.61
2017-11-09T07:24:36.000Z,95919.94
2017-11-09T07:27:03.583Z,95920.61
2017-11-09T07:29:31.114Z,95915.01
2017-11-09T07:31:58.712Z,95921.70
2017-11-09T07:34:26.488Z,95925.47
2017-11-09T07:36:54.039Z,95926.38
2017-11-09T07:39:21.611Z,95927.61
2017-11-09T07:41:49.179Z,95924.31
2017-11-09T07:44:16.702Z,95923.41
2017-11-09T07:46:44.295Z,95925.19
2017-11-09T07:49:11.842Z,95920.29
2017-11-09T07:51:39.610Z,95924.59
2017-11-09T07:54:07.226Z,95918.14
2017-11-09T07:56:34.979Z,95918.38
2017-11-09T07:59:02.539Z,95914.48
2017-11-09T08:01:30.093Z,95912.98
2017-11-09T08:03:57.592Z,95909.45
2017-11-09T08:06:25.160Z,95907.53
2017-11-09T08:08:52.741Z,95911.30
2017-11-09T08:11:20.266Z,95911.18
2017-11-09T08:13:48.055Z,95915.70
2017-11-09T08:16:15.664Z,95918.70
2017-11-09T08:18:44.065Z,95922.56
2017-11-09T08:21:11.597Z,95928.70
2017-11-09T08:23:39.221Z,95925.37
2017-11-09T08:28:41.660Z,95932.39
2017-11-09T08:31:10.944Z,95932.20
2017-11-09T08:33:40.192Z,95923.11
2017-11-09T08:36:07.974Z,95927.09
2017-11-09T08:38:35.620Z,95931.90
2017-11-09T08:41:03.163Z,95933.59
2017-11-09T08:43:30.692Z,95936.53
2017-11-09T08:45:58.297Z,95926.28
2017-11-09T08:48:26.120Z,95928.48
2017-11-09T08:50:53.886Z,95926.77
2017-11-09T08:53:21.500Z,95924.23
2017-11-09T08:55:49.120Z,95921.63
2017-11-09T08:58:17.500Z,95925.23
2017-11-09T09:00:45.064Z,95923.64
2017-11-09T09:03:12.851Z,95928.63
2017-11-09T09:05:40.697Z,95921.52
2017-11-09T09:08:08.292Z,95921.94
2017-11-09T09:10:36.596Z,95918.75
2017-11-09T09:16:54.249Z,95912.33
2017-11-09T09:19:43.769Z,95914.42
2017-11-09T09:32:19.227Z,95902.91
2017-11-09T09:38:38.979Z,95893.16
2017-11-09T09:41:06.725Z,95889.72
2017-11-09T09:43:34.590Z,95892.69
2017-11-09T09:46:02.195Z,95884.38
2017-11-09T09:48:29.762Z,95888.54
2017-11-09T09:50:59.020Z,95894.19
2017-11-09T09:53:26.612Z,95892.10
2017-11-09T09:55:55.765Z,95890.70
2017-11-09T09:58:25.961Z,95880.45
2017-11-09T10:00:53.801Z,95882.89
2017-11-09T10:03:23.937Z,95881.77
2017-11-09T10:05:51.487Z,95883.73
2017-11-09T10:08:21.192Z,95872.14
2017-11-09T10:10:48.819Z,95880.85
2017-11-09T10:13:19.026Z,95877.20
2017-11-09T10:15:46.651Z,95870.95
2017-11-09T10:18:16.915Z,95871.75
2017-11-09T10:20:44.475Z,95873.83
2017-11-09T10:23:12.819Z,95867.66
2017-11-09T10:25:41.399Z,95869.44
2017-11-09T10:28:11.276Z,95868.84
2017-11-09T10:30:38.864Z,95867.09
2017-11-09T10:33:12.912Z,95868.21
2017-11-09T10:35:41.073Z,95876.03
2017-11-09T10:38:08.628Z,95871.81
2017-11-09T10:40:37.756Z,95871.73
2017-11-09T10:43:05.376Z,95872.88
2017-11-09T10:45:37.674Z,95866.38
2017-11-09T10:48:05.284Z,95867.52
2017-11-09T10:50:32.883Z,95872.52
2017-11-09T10:53:00.432Z,95868.47
2017-11-09T10:55:28.057Z,95865.02
2017-11-09T10:57:55.761Z,95861.48
2017-11-09T11:00:30.069Z,95858.28
2017-11-09T11:02:57.626Z,95862.20
2017-11-09T11:05:25.841Z,95851.99
2017-11-09T11:07:55.056Z,95854.59
2017-11-09T11:10:23.525Z,95852.28
2017-11-09T11:12:51.411Z,95852.71
2017-11-09T11:15:20.045Z,95852.45
2017-11-09T11:17:47.577Z,95848.31
2017-11-09T11:20:15.298Z,95841.33
2017-11-09T11:22:42.916Z,95841.34
2017-11-09T11:25:12.096Z,95842.75
2017-11-09T11:27:39.707Z,95836.08
2017-11-09T11:30:09.380Z,95840.32
2017-11-09T11:32:37.139Z,95833.94
2017-11-09T11:35:04.660Z,95836.68
2017-11-09T11:37:32.238Z,95838.98
2017-11-09T11:40:01.544Z,95838.84
2017-11-09T11:42:30.645Z,95838.69
2017-11-09T11:44:58.268Z,95833.14
2017-11-09T11:50:15.651Z,95835.98
2017-11-09T11:52:49.228Z,95836.59
2017-11-09T11:58:02.792Z,95825.12
2017-11-09T12:00:35.770Z,95830.53
2017-11-09T12:03:22.489Z,95835.30
2017-11-09T12:06:08.395Z,95831.84
2017-11-09T12:15:02.243Z,95830.77
2017-11-09T12:17:30.507Z,95834.98
2017-11-09T12:19:58.045Z,95828.78
2017-11-09T12:22:28.464Z,95829.06
2017-11-09T12:24:56.043Z,95828.18
2017-11-09T12:27:24.232Z,95830.72
2017-11-09T12:29:52.030Z,95818.84
2017-11-09T12:32:21.299Z,95819.55
2017-11-09T12:34:49.045Z,95826.04
2017-11-09T12:37:16.806Z,95821.56
2017-11-09T12:39:45.855Z,95821.08
2017-11-09T12:42:14.433Z,95823.81
2017-11-09T12:44:42.843Z,95816.98
2017-11-09T12:47:11.639Z,95826.06
2017-11-09T12:49:39.390Z,95824.83
2017-11-09T12:52:07.194Z,95822.67
2017-11-09T12:54:34.814Z,95812.21
2017-11-09T12:57:02.567Z,95814.16
2017-11-09T12:59:30.880Z,95815.42
2017-11-09T13:01:58.781Z,95820.92
2017-11-09T13:04:27.382Z,95810.94
2017-11-09T13:06:54.987Z,95816.08
2017-11-09T13:09:22.602Z,95816.91
2017-11-09T13:11:50.821Z,95820.62
2017-11-09T13:14:18.778Z,95820.62
2017-11-09T13:16:46.565Z,95822.77
2017-11-09T13:19:14.282Z,95816.06
2017-11-09T13:21:42.791Z,95821.88
2017-11-09T13:24:10.401Z,95815.61
2017-11-09T13:26:37.931Z,95806.67
2017-11-09T13:29:06.525Z,95816.19
2017-11-09T13:31:35.079Z,95809.34
2017-11-09T13:34:03.145Z,95812.16
2017-11-09T13:36:31.542Z,95815.02
2017-11-09T13:38:59.104Z,95809.72
2017-11-09T13:41:26.973Z,95814.66
2017-11-09T13:43:55.468Z,95810.00
2017-11-09T13:46:23.037Z,95807.65
2017-11-09T13:48:51.173Z,95807.91
2017-11-09T13:51:18.728Z,95807.02
2017-11-09T13:53:46.340Z,95807.92
2017-11-09T13:56:13.978Z,95808.33
2017-11-09T13:58:42.236Z,95804.08
2017-11-09T14:01:09.944Z,95809.03
2017-11-09T14:03:37.583Z,95812.11
2017-11-09T14:06:06.907Z,95816.88
2017-11-09T14:08:34.653Z,95809.48
2017-11-09T14:11:02.444Z,95815.56
2017-11-09T14:13:31.238Z,95816.39
2017-11-09T14:15:59.351Z,95816.79
2017-11-09T14:18:27.127Z,95820.97
2017-11-09T14:20:54.733Z,95825.19
2017-11-09T14:23:24.523Z,95825.34
2017-11-09T14:25:53.657Z,95833.33
2017-11-09T14:44:38.556Z,95831.17
2017-11-09T14:47:15.193Z,95832.85
2017-11-09T14:49:44.034Z,95833.61
2017-11-09T14:52:15.252Z,95833.45
2017-11-09T14:54:46.854Z,95803.38
2017-11-09T14:57:19.885Z,95830.05
2017-11-09T14:59:47.498Z,95832.20
2017-11-09T15:02:15.250Z,95836.60
2017-11-09T15:04:42.842Z,95840.55
2017-11-09T15:07:10.486Z,95834.05
2017-11-09T15:09:38.173Z,95836.41
2017-11-09T15:12:07.560Z,95847.84
2017-11-09T15:14:35.232Z,95841.97
2017-11-09T15:17:04.140Z,95842.61
2017-11-09T15:19:31.690Z,95845.70
2017-11-09T15:21:59.247Z,95848.42
2017-11-09T15:24:27.092Z,95846.80
2017-11-09T15:26:54.760Z,95851.66
2017-11-09T15:29:22.599Z,95848.98
2017-11-09T15:31:51.813Z,95852.09
2017-11-09T15:34:19.470Z,95852.00
2017-11-09T15:36:47.720Z,95858.02
2017-11-09T15:39:15.387Z,95858.72
2017-11-09T15:41:42.988Z,95860.23
2017-11-09T15:44:10.820Z,95866.89
2017-11-09T15:46:38.472Z,95865.09
2017-11-09T15:49:06.143Z,95863.06
2017-11-09T15:51:33.951Z,95866.95
2017-11-09T15:54:01.685Z,95856.73
2017-11-09T15:56:29.346Z,95875.81
2017-11-09T15:58:57.951Z,95873.17
2017-11-09T16:01:25.614Z,95875.64
2017-11-09T16:03:53.200Z,95871.39
2017-11-09T16:06:23.554Z,95873.12
2017-11-09T16:08:52.266Z,95881.16
2017-11-09T16:11:23.916Z,95874.50
2017-11-09T16:13:52.172Z,95877.31
2017-11-09T16:16:19.881Z,95874.35
2017-11-09T16:18:48.000Z,95879.55
2017-11-09T16:21:17.171Z,95882.11
2017-11-09T16:23:44.794Z,95881.69
2017-11-09T16:26:12.398Z,95885.13
2017-11-09T16:28:40.017Z,95895.47
2017-11-09T16:31:07.779Z,95884.41
2017-11-09T16:33:38.452Z,95895.39
2017-11-09T16:36:10.400Z,95900.89
2017-11-09T16:38:37.989Z,95895.14
2017-11-09T16:41:05.573Z,95902.88
2017-11-09T16:43:40.444Z,95897.20
2017-11-09T16:46:08.140Z,95906.30
2017-11-09T16:48:35.905Z,95910.23
2017-11-09T16:51:04.385Z,95901.80
2017-11-09T16:53:32.190Z,95907.58
2017-11-09T16:55:59.988Z,95897.53
2017-11-09T16:58:31.487Z,95900.67
2017-11-09T17:00:59.131Z,95903.41
2017-11-09T17:03:26.957Z,95900.30
2017-11-09T17:05:54.617Z,95903.18
2017-11-09T17:08:22.856Z,95906.57
2017-11-09T17:10:50.438Z,95906.23
2017-11-09T17:13:18.003Z,95904.81
2017-11-09T17:15:45.625Z,95908.05
2017-11-09T17:18:14.202Z,95907.26
2017-11-09T17:20:41.766Z,95908.47
2017-11-09T17:23:09.479Z,95903.68
2017-11-09T17:25:37.141Z,95903.23
2017-11-09T17:28:04.954Z,95902.30
2017-11-09T17:30:33.788Z,95899.11
2017-11-09T17:33:02.466Z,95899.70
2017-11-09T17:35:30.168Z,95905.38
2017-11-09T17:37:57.826Z,95905.94
2017-11-09T17:40:26.779Z,95903.26
2017-11-09T17:42:54.987Z,95904.61
2017-11-09T17:45:22.821Z,95914.16
2017-11-09T17:47:50.424Z,95912.93
2017-11-09T17:50:18.013Z,95904.79
2017-11-09T17:52:46.072Z,95903.05
2017-11-09T17:55:13.935Z,95900.63
2017-11-09T17:57:41.512Z,95904.02
2017-11-09T18:00:15.205Z,95907.75
2017-11-09T18:02:43.000Z,95905.99
2017-11-09T18:05:10.665Z,95908.80
2017-11-09T18:07:38.331Z,95910.52
2017-11-09T18:10:06.150Z,95906.31
2017-11-09T18:12:33.944Z,95912.40
2017-11-09T18:15:01.607Z,95901.17
2017-11-09T18:17:29.221Z,95894.24
2017-11-09T18:19:57.024Z,95907.55
2017-11-09T18:22:28.505Z,95905.89
2017-11-09T18:24:56.749Z,95916.22
2017-11-09T18:27:24.671Z,95915.23
2017-11-09T18:29:52.320Z,95911.28
2017-11-09T18:32:20.088Z,95920.51
2017-11-09T18:34:47.951Z,95924.18
2017-11-09T18:37:15.760Z,95927.69
2017-11-09T18:39:43.412Z,95932.64
2017-11-09T18:42:10.968Z,95921.20
2017-11-09T18:44:38.512Z,95930.18
2017-11-09T18:47:06.107Z,95928.53
2017-11-09T18:49:34.486Z,95923.12
2017-11-09T18:52:02.096Z,95920.16
2017-11-09T18:54:29.797Z,95931.64
2017-11-09T18:56:57.468Z,95935.50
2017-11-09T18:59:25.249Z,95929.84
2017-11-09T19:01:52.866Z,95925.23
2017-11-09T19:04:20.771Z,95936.25
2017-11-09T19:06:48.456Z,95939.22
2017-11-09T19:09:19.066Z,95926.02
2017-11-09T19:11:46.759Z,95936.78
2017-11-09T19:14:24.084Z,95939.91
2017-11-09T19:16:51.696Z,95939.44
2017-11-09T19:19:19.293Z,95946.00
2017-11-09T19:21:46.912Z,95943.20
2017-11-09T19:24:14.791Z,95941.84
2017-11-09T19:26:43.430Z,95941.94
2017-11-09T19:29:12.419Z,95943.01
2017-11-09T19:31:44.595Z,95946.23
2017-11-09T19:34:13.250Z,95940.97
2017-11-09T19:36:40.929Z,95945.20
2017-11-09T19:39:08.552Z,95949.77
2017-11-09T19:41:36.221Z,95946.86
2017-11-09T19:44:05.251Z,95944.38
2017-11-09T19:46:32.848Z,95950.64
2017-11-09T19:49:00.672Z,95952.23
2017-11-09T19:51:28.404Z,95949.88
2017-11-09T19:53:56.092Z,95951.44
2017-11-09T19:56:23.633Z,95955.95
2017-11-09T19:58:52.208Z,95950.64
2017-11-09T20:01:20.827Z,95956.66
2017-11-09T20:03:48.534Z,95957.17
2017-11-09T20:06:16.145Z,95953.44
2017-11-09T20:08:43.772Z,95959.99
2017-11-09T20:11:11.383Z,95961.81
2017-11-09T20:13:38.967Z,95948.05
2017-11-09T20:16:06.601Z,95949.59
2017-11-09T20:18:34.202Z,95948.94
2017-11-09T20:21:01.741Z,95953.34
2017-11-09T20:23:32.835Z,95952.92
2017-11-09T20:26:00.807Z,95961.89
2017-11-09T20:28:28.919Z,95947.73
2017-11-09T20:30:56.538Z,95943.86
2017-11-09T20:33:24.163Z,95946.19
2017-11-09T20:35:51.794Z,95948.23
2017-11-09T20:38:19.453Z,95950.92
2017-11-09T20:41:01.174Z,95956.36
2017-11-09T20:43:28.816Z,95949.67
2017-11-09T20:45:56.374Z,95950.58
2017-11-09T20:48:23.952Z,95944.54
2017-11-09T20:50:51.637Z,95950.05
2017-11-09T20:53:19.323Z,95952.59
2017-11-09T20:55:47.219Z,95958.08
2017-11-09T20:58:14.878Z,95951.93
2017-11-09T21:00:42.468Z,95957.53
2017-11-09T21:03:10.042Z,95954.42
2017-11-09T21:05:37.642Z,95949.17
2017-11-09T21:08:05.218Z,95955.08
2017-11-09T21:10:33.550Z,95952.54
2017-11-09T21:13:01.195Z,95959.05
2017-11-09T21:15:28.873Z,95964.54
2017-11-09T21:17:56.490Z,95960.12
2017-11-09T21:20:24.105Z,95958.69
2017-11-09T21:22:51.783Z,95961.78
2017-11-09T21:25:20.165Z,95962.57
2017-11-09T21:27:47.827Z,95965.72
2017-11-09T21:30:15.922Z,95954.25
2017-11-09T21:32:43.733Z,95961.52
2017-11-09T21:35:11.642Z,95965.97
2017-11-09T21:37:39.330Z,95968.69
2017-11-09T21:40:06.925Z,95961.92
2017-11-09T21:42:34.564Z,95966.88
2017-11-09T21:45:02.295Z,95969.98
2017-11-09T21:47:29.919Z,95964.48
2017-11-09T21:49:58.062Z,95969.30
2017-11-09T21:52:25.690Z,95969.11
2017-11-09T21:54:53.368Z,95970.58
2017-11-09T21:57:20.992Z,95971.47
2017-11-09T21:59:48.641Z,95968.08
2017-11-09T22:02:17.290Z,95968.45
2017-11-09T22:04:45.135Z,95983.34
2017-11-09T22:07:12.756Z,95974.16
2017-11-09T22:09:41.255Z,95966.98
2017-11-09T22:12:09.508Z,95965.98
2017-11-09T22:14:37.592Z,95975.17
2017-11-09T22:17:05.374Z,95973.37
2017-11-09T22:19:33.060Z,95975.82
2017-11-09T22:22:00.884Z,95974.31
2017-11-09T22:24:28.623Z,95977.00
2017-11-09T22:26:56.465Z,95976.95
2017-11-09T22:29:24.167Z,95976.87
2017-11-09T22:31:51.897Z,95987.19
2017-11-09T22:34:19.734Z,95981.33
2017-11-09T22:36:47.713Z,95986.88
2017-11-09T22:39:15.431Z,95978.22
2017-11-09T22:41:43.222Z,95980.52
2017-11-09T22:44:10.906Z,95981.41
2017-11-09T22:46:41.387Z,95982.05
2017-11-09T22:49:09.501Z,95989.37
2017-11-09T22:51:44.069Z,95990.19
2017-11-09T22:54:12.724Z,95986.16
2017-11-09T22:56:40.593Z,95987.20
2017-11-09T22:59:08.269Z,95979.02
2017-11-09T23:01:36.127Z,95982.97
2017-11-09T23:04:05.408Z,95987.64
2017-11-09T23:09:18.795Z,95999.33
2017-11-09T23:11:46.423Z,95997.22
2017-11-09T23:14:14.244Z,95987.66
2017-11-09T23:16:42.264Z,95997.87
2017-11-09T23:19:09.936Z,95991.97
2017-11-09T23:21:37.607Z,95991.84
2017-11-09T23:24:05.320Z,95994.73
2017-11-09T23:26:33.047Z,95996.86
2017-11-09T23:29:00.976Z,95988.65
2017-11-09T23:31:28.840Z,95991.81
2017-11-09T23:33:58.172Z,95995.12
2017-11-09T23:36:27.430Z,95990.54
2017-11-09T23:38:56.871Z,95999.91
2017-11-09T23:41:29.332Z,95983.80
2017-11-09T23:43:59.161Z,95991.77
2017-11-09T23:46:29.347Z,95995.02
2017-11-09T23:48:58.076Z,96001.95
2017-11-09T23:51:27.294Z,95997.59
2017-11-09T23:53:57.148Z,95999.36
2017-11-09T23:56:26.208Z,95999.19
2017-11-09T23:58:55.437Z,96000.96
